Clements, Minnesota
Current Conditions -  °F | °C
As of 12:53 PM on Tuesday 27 Jan 2015 (Local Time) from KRWF Reporting Station
Overcast Overcast  
Wind Chill: 26°   Ceiling: 700
Heat Index: 33°   Visibility: 10mi
Dew Point: 29°   Wind: 8mph
Humidity: 85%   Direction: 140°SE
Pressure: 30.12"   Gusts: NA
Location:  44.38°N, 95.05°W
Report Text: KRWF 271853Z AUTO 14007KT 10SM OVC007 01/M02 A3012 RMK AO2 SLP211 T00061017
Loading
Personal Weather Stations






























Interactive Weather Map New forecast layout! Learn more

10-Day Weather Forecast

Advertisements
Track Severe Weather on mobile